createdAt,value
2019-03-17T00:01:12.193Z,5.10
2019-03-17T00:03:41.088Z,3.73
2019-03-17T00:06:10.295Z,4.20
2019-03-17T00:08:39.469Z,3.87
2019-03-17T00:11:08.807Z,4.07
2019-03-17T00:13:37.937Z,3.77
2019-03-17T00:16:07.352Z,4.00
2019-03-17T00:18:36.497Z,3.60
2019-03-17T00:21:05.685Z,3.40
2019-03-17T00:23:34.833Z,3.80
2019-03-17T00:26:04.220Z,4.10
2019-03-17T00:28:33.347Z,3.83
2019-03-17T00:31:02.543Z,4.03
2019-03-17T00:33:31.935Z,3.27
2019-03-17T00:36:01.270Z,3.70
2019-03-17T00:38:30.421Z,3.37
2019-03-17T00:40:59.674Z,3.40
2019-03-17T00:43:28.850Z,3.60
2019-03-17T00:45:58.140Z,3.63
2019-03-17T00:48:27.398Z,3.90
2019-03-17T00:50:56.526Z,3.10
2019-03-17T00:53:25.702Z,3.63
2019-03-17T00:55:54.831Z,3.80
2019-03-17T00:58:23.985Z,3.40
2019-03-17T01:00:53.110Z,3.83
2019-03-17T01:03:22.342Z,4.30
2019-03-17T01:05:51.503Z,4.27
2019-03-17T18:01:28.600Z,2.30
2019-03-17T18:03:57.750Z,1.63
2019-03-17T18:06:26.923Z,1.83
2019-03-17T18:08:56.093Z,4.10
2019-03-17T18:11:25.328Z,4.10
2019-03-17T18:13:54.539Z,1.07
2019-03-17T18:16:23.726Z,1.63
2019-03-17T18:18:52.880Z,1.03
2019-03-17T18:21:22.045Z,1.33
2019-03-17T18:23:51.338Z,1.37
2019-03-17T18:26:20.600Z,1.70
2019-03-17T18:28:49.768Z,1.10
2019-03-17T18:31:18.977Z,1.00
2019-03-17T18:33:51.453Z,1.23
2019-03-17T18:36:20.632Z,0.87
2019-03-17T18:38:49.787Z,1.03
2019-03-17T18:41:18.975Z,1.17
2019-03-17T18:43:48.239Z,1.07
2019-03-17T18:46:17.390Z,1.10
2019-03-17T18:48:46.557Z,1.30
2019-03-17T18:51:15.755Z,1.23
2019-03-17T18:53:45.007Z,0.90
2019-03-17T18:56:14.206Z,1.83
2019-03-17T18:58:43.410Z,1.73
2019-03-17T19:01:12.786Z,1.10
2019-03-17T19:03:41.983Z,3.57
2019-03-17T19:06:11.171Z,2.77
2019-03-17T19:08:40.503Z,1.60
2019-03-17T19:11:09.726Z,1.10
2019-03-17T19:13:38.973Z,1.97
2019-03-17T19:16:08.180Z,2.57
2019-03-17T19:18:37.373Z,1.07
2019-03-17T19:21:06.611Z,3.40
2019-03-17T19:23:35.875Z,2.10
2019-03-17T19:26:05.099Z,1.77
2019-03-17T19:28:34.282Z,1.90
2019-03-17T19:31:03.471Z,3.20
2019-03-17T19:33:33.044Z,2.00
2019-03-17T19:36:02.274Z,1.20
2019-03-17T19:38:31.470Z,1.10
2019-03-17T19:41:02.104Z,1.33
2019-03-17T19:43:31.444Z,1.07
2019-03-17T19:46:00.883Z,1.33
2019-03-17T19:48:30.097Z,0.83
2019-03-17T19:50:59.379Z,0.67
2019-03-17T19:53:28.641Z,1.13
2019-03-17T19:55:57.919Z,0.60
2019-03-17T19:58:27.131Z,0.90
2019-03-17T20:00:56.473Z,1.00
2019-03-17T20:03:25.638Z,1.03
2019-03-17T20:06:02.200Z,1.03
2019-03-17T20:08:26.039Z,0.50
2019-03-17T20:10:55.297Z,0.90
2019-03-17T20:13:24.467Z,0.90
2019-03-17T20:15:53.783Z,0.87
2019-03-17T20:18:22.981Z,0.87
2019-03-17T20:20:52.200Z,0.90
2019-03-17T20:23:21.717Z,0.90
2019-03-17T20:25:51.037Z,0.90
2019-03-17T20:28:20.285Z,0.80
2019-03-17T20:30:49.532Z,0.67
2019-03-17T20:33:18.833Z,0.73
2019-03-17T20:35:48.270Z,0.83
2019-03-17T20:38:17.490Z,1.10
2019-03-17T20:40:46.651Z,0.60
2019-03-17T20:43:29.285Z,0.80
2019-03-17T20:45:46.872Z,0.73
2019-03-17T20:48:16.281Z,0.50
2019-03-17T20:50:45.546Z,0.70
2019-03-17T20:53:14.806Z,0.70
2019-03-17T20:55:43.968Z,1.50
2019-03-17T20:58:13.228Z,0.70
2019-03-17T21:00:42.395Z,0.60
2019-03-17T21:03:11.609Z,0.90
2019-03-17T21:05:40.917Z,0.93
2019-03-17T21:08:10.159Z,0.87
2019-03-17T21:10:39.382Z,0.80
2019-03-17T21:13:08.573Z,1.23
2019-03-17T21:15:37.757Z,1.20
2019-03-17T21:18:06.926Z,0.90
2019-03-17T21:20:36.144Z,1.30
2019-03-17T21:23:05.354Z,1.27
2019-03-17T21:25:34.579Z,1.00
2019-03-17T21:28:03.807Z,1.20
2019-03-17T21:30:33.040Z,0.83
2019-03-17T21:33:02.226Z,2.27
2019-03-17T21:35:31.443Z,4.00
2019-03-17T21:38:00.617Z,1.03
2019-03-17T21:40:30.842Z,1.53
2019-03-17T21:43:00.024Z,1.30
2019-03-17T21:45:29.214Z,1.30
2019-03-17T21:47:58.404Z,1.43
2019-03-17T21:50:27.621Z,1.37
2019-03-17T21:52:56.764Z,1.40
2019-03-17T21:55:25.967Z,1.53
2019-03-17T21:57:55.337Z,1.47
2019-03-17T22:00:24.646Z,1.20
2019-03-17T22:02:55.210Z,1.00
2019-03-17T22:05:24.577Z,1.10
2019-03-17T22:07:53.719Z,1.50
2019-03-17T22:10:23.046Z,1.23
2019-03-17T22:12:52.320Z,0.97
2019-03-17T22:15:21.509Z,1.10
2019-03-17T22:17:50.696Z,0.90
2019-03-17T22:20:19.850Z,1.20
2019-03-17T22:22:48.989Z,0.73
2019-03-17T22:25:18.147Z,1.00
2019-03-17T22:27:47.345Z,1.00
2019-03-17T22:30:16.572Z,0.90
2019-03-17T22:32:45.949Z,1.00
2019-03-17T22:35:15.087Z,1.30
2019-03-17T22:37:44.299Z,0.90
2019-03-17T22:40:13.449Z,1.30
2019-03-17T22:42:42.610Z,1.10
2019-03-17T22:45:12.150Z,1.10
2019-03-17T22:47:41.347Z,1.20
2019-03-17T22:50:11.034Z,1.10
2019-03-17T22:52:40.218Z,1.00
2019-03-17T22:55:09.602Z,1.20
2019-03-17T22:57:38.745Z,1.03
2019-03-17T23:00:10.309Z,0.90
2019-03-17T23:02:39.538Z,1.50
2019-03-17T23:05:08.915Z,1.30
2019-03-17T23:07:38.396Z,1.00
2019-03-17T23:10:08.496Z,1.00
2019-03-17T23:12:37.712Z,0.90
2019-03-17T23:15:07.228Z,1.07
2019-03-17T23:17:36.366Z,1.20
2019-03-17T23:20:05.981Z,1.00
2019-03-17T23:22:35.163Z,1.27
2019-03-17T23:25:04.411Z,1.13
2019-03-17T23:27:33.673Z,1.10
2019-03-17T23:30:02.817Z,1.33
2019-03-17T23:32:31.938Z,1.57
2019-03-17T23:35:01.098Z,1.00
2019-03-17T23:37:30.238Z,1.20
2019-03-17T23:39:59.366Z,1.03
2019-03-17T23:42:28.530Z,1.80
2019-03-17T23:44:57.670Z,1.20
2019-03-17T23:47:26.769Z,1.07
2019-03-17T23:49:55.909Z,0.97
2019-03-17T23:52:25.098Z,1.40
2019-03-17T23:54:54.235Z,1.30
2019-03-17T23:57:23.389Z,1.37
2019-03-17T23:59:52.542Z,1.17
